sensor_id;sensor_type;location;lat;lon;timestamp;P1;durP1;ratioP1;P2;durP2;ratioP2
51981;SDS011;37998;53.416;6.730;2022-08-05T00:01:36;6.90;;;2.30;;
51981;SDS011;37998;53.416;6.730;2022-08-05T00:04:02;4.97;;;2.17;;
51981;SDS011;37998;53.416;6.730;2022-08-05T00:06:28;6.15;;;2.40;;
51981;SDS011;37998;53.416;6.730;2022-08-05T00:08:53;3.90;;;2.17;;
51981;SDS011;37998;53.416;6.730;2022-08-05T00:11:19;7.28;;;2.13;;
51981;SDS011;37998;53.416;6.730;2022-08-05T00:13:45;6.03;;;2.13;;
51981;SDS011;37998;53.416;6.730;2022-08-05T00:16:14;4.30;;;2.08;;
51981;SDS011;37998;53.416;6.730;2022-08-05T00:18:41;9.18;;;2.53;;
51981;SDS011;37998;53.416;6.730;2022-08-05T00:21:08;5.45;;;3.38;;
51981;SDS011;37998;53.416;6.730;2022-08-05T00:23:35;4.40;;;2.10;;
51981;SDS011;37998;53.416;6.730;2022-08-05T00:26:01;4.65;;;2.13;;
51981;SDS011;37998;53.416;6.730;2022-08-05T00:28:26;8.00;;;2.65;;
51981;SDS011;37998;53.416;6.730;2022-08-05T00:30:52;6.82;;;2.20;;
51981;SDS011;37998;53.416;6.730;2022-08-05T00:33:18;4.95;;;2.08;;
51981;SDS011;37998;53.416;6.730;2022-08-05T00:35:43;4.72;;;2.15;;
51981;SDS011;37998;53.416;6.730;2022-08-05T00:38:09;4.22;;;2.25;;
51981;SDS011;37998;53.416;6.730;2022-08-05T00:40:44;5.00;;;2.50;;
51981;SDS011;37998;53.416;6.730;2022-08-05T00:43:14;4.97;;;2.20;;
51981;SDS011;37998;53.416;6.730;2022-08-05T00:45:40;5.10;;;2.97;;
51981;SDS011;37998;53.416;6.730;2022-08-05T00:48:06;5.03;;;2.50;;
51981;SDS011;37998;53.416;6.730;2022-08-05T00:50:32;3.03;;;1.92;;
51981;SDS011;37998;53.416;6.730;2022-08-05T00:52:58;5.68;;;2.50;;
51981;SDS011;37998;53.416;6.730;2022-08-05T00:55:24;7.10;;;3.33;;
51981;SDS011;37998;53.416;6.730;2022-08-05T00:57:49;4.45;;;2.90;;
51981;SDS011;37998;53.416;6.730;2022-08-05T01:00:15;5.75;;;2.95;;
51981;SDS011;37998;53.416;6.730;2022-08-05T01:02:41;5.03;;;2.67;;
51981;SDS011;37998;53.416;6.730;2022-08-05T01:05:06;5.85;;;2.60;;
51981;SDS011;37998;53.416;6.730;2022-08-05T01:07:32;5.32;;;2.58;;
51981;SDS011;37998;53.416;6.730;2022-08-05T01:09:58;5.75;;;2.42;;
51981;SDS011;37998;53.416;6.730;2022-08-05T01:12:24;5.15;;;2.30;;
51981;SDS011;37998;53.416;6.730;2022-08-05T01:14:58;3.70;;;2.20;;
51981;SDS011;37998;53.416;6.730;2022-08-05T01:20:18;9.30;;;2.63;;
51981;SDS011;37998;53.416;6.730;2022-08-05T01:28:15;5.57;;;1.95;;
51981;SDS011;37998;53.416;6.730;2022-08-05T01:30:52;5.13;;;1.85;;
51981;SDS011;37998;53.416;6.730;2022-08-05T01:33:24;4.82;;;2.22;;
51981;SDS011;37998;53.416;6.730;2022-08-05T01:35:56;5.57;;;1.75;;
51981;SDS011;37998;53.416;6.730;2022-08-05T01:38:25;5.18;;;1.80;;
51981;SDS011;37998;53.416;6.730;2022-08-05T01:40:52;7.45;;;1.80;;
51981;SDS011;37998;53.416;6.730;2022-08-05T01:43:19;6.30;;;2.10;;
51981;SDS011;37998;53.416;6.730;2022-08-05T01:45:46;3.72;;;1.70;;
51981;SDS011;37998;53.416;6.730;2022-08-05T01:48:12;3.92;;;1.90;;
51981;SDS011;37998;53.416;6.730;2022-08-05T01:50:40;3.88;;;1.70;;
51981;SDS011;37998;53.416;6.730;2022-08-05T01:53:08;2.20;;;1.58;;
51981;SDS011;37998;53.416;6.730;2022-08-05T01:55:36;2.78;;;1.70;;
51981;SDS011;37998;53.416;6.730;2022-08-05T01:58:05;4.97;;;1.75;;
51981;SDS011;37998;53.416;6.730;2022-08-05T02:00:34;3.15;;;1.90;;
51981;SDS011;37998;53.416;6.730;2022-08-05T02:03:06;5.90;;;2.10;;
51981;SDS011;37998;53.416;6.730;2022-08-05T02:05:52;4.43;;;1.80;;
51981;SDS011;37998;53.416;6.730;2022-08-05T02:08:19;7.75;;;1.80;;
51981;SDS011;37998;53.416;6.730;2022-08-05T02:10:55;3.10;;;1.60;;
51981;SDS011;37998;53.416;6.730;2022-08-05T02:19:29;6.72;;;1.75;;
51981;SDS011;37998;53.416;6.730;2022-08-05T02:24:27;3.72;;;1.73;;
51981;SDS011;37998;53.416;6.730;2022-08-05T02:27:01;3.10;;;1.67;;
51981;SDS011;37998;53.416;6.730;2022-08-05T02:29:29;3.00;;;2.00;;
51981;SDS011;37998;53.416;6.730;2022-08-05T02:31:58;5.85;;;2.10;;
51981;SDS011;37998;53.416;6.730;2022-08-05T02:34:27;5.80;;;2.47;;
51981;SDS011;37998;53.416;6.730;2022-08-05T02:36:56;3.60;;;2.25;;
51981;SDS011;37998;53.416;6.730;2022-08-05T02:39:26;6.07;;;2.17;;
51981;SDS011;37998;53.416;6.730;2022-08-05T02:41:53;6.32;;;1.88;;
51981;SDS011;37998;53.416;6.730;2022-08-05T02:44:19;4.03;;;1.90;;
51981;SDS011;37998;53.416;6.730;2022-08-05T02:46:48;4.07;;;2.00;;
51981;SDS011;37998;53.416;6.730;2022-08-05T02:49:15;4.15;;;1.63;;
51981;SDS011;37998;53.416;6.730;2022-08-05T02:51:41;3.05;;;1.65;;
51981;SDS011;37998;53.416;6.730;2022-08-05T02:54:09;3.97;;;1.90;;
51981;SDS011;37998;53.416;6.730;2022-08-05T02:56:37;4.53;;;1.73;;
51981;SDS011;37998;53.416;6.730;2022-08-05T02:59:05;1.80;;;1.40;;
51981;SDS011;37998;53.416;6.730;2022-08-05T03:01:31;5.45;;;1.58;;
51981;SDS011;37998;53.416;6.730;2022-08-05T03:04:00;4.85;;;1.52;;
51981;SDS011;37998;53.416;6.730;2022-08-05T03:06:27;2.53;;;1.40;;
51981;SDS011;37998;53.416;6.730;2022-08-05T03:08:53;3.28;;;1.55;;
51981;SDS011;37998;53.416;6.730;2022-08-05T03:11:20;5.78;;;1.58;;
51981;SDS011;37998;53.416;6.730;2022-08-05T03:13:48;3.90;;;1.48;;
51981;SDS011;37998;53.416;6.730;2022-08-05T03:16:15;2.58;;;1.40;;
51981;SDS011;37998;53.416;6.730;2022-08-05T03:18:41;3.83;;;1.90;;
51981;SDS011;37998;53.416;6.730;2022-08-05T03:21:07;4.57;;;1.63;;
51981;SDS011;37998;53.416;6.730;2022-08-05T03:23:33;2.00;;;1.70;;
51981;SDS011;37998;53.416;6.730;2022-08-05T03:26:00;3.65;;;1.70;;
51981;SDS011;37998;53.416;6.730;2022-08-05T03:28:27;3.78;;;1.58;;
51981;SDS011;37998;53.416;6.730;2022-08-05T03:30:54;3.55;;;1.50;;
51981;SDS011;37998;53.416;6.730;2022-08-05T03:33:21;3.20;;;1.73;;
51981;SDS011;37998;53.416;6.730;2022-08-05T03:35:47;3.10;;;1.65;;
51981;SDS011;37998;53.416;6.730;2022-08-05T03:38:13;4.40;;;1.70;;
51981;SDS011;37998;53.416;6.730;2022-08-05T03:40:39;3.65;;;1.92;;
51981;SDS011;37998;53.416;6.730;2022-08-05T03:43:09;2.45;;;1.67;;
51981;SDS011;37998;53.416;6.730;2022-08-05T03:45:35;4.47;;;1.65;;
51981;SDS011;37998;53.416;6.730;2022-08-05T03:48:01;3.33;;;1.50;;
51981;SDS011;37998;53.416;6.730;2022-08-05T03:50:28;3.28;;;1.65;;
51981;SDS011;37998;53.416;6.730;2022-08-05T03:53:05;4.22;;;1.60;;
51981;SDS011;37998;53.416;6.730;2022-08-05T03:55:36;4.25;;;1.70;;
51981;SDS011;37998;53.416;6.730;2022-08-05T03:58:08;3.33;;;1.58;;
51981;SDS011;37998;53.416;6.730;2022-08-05T04:00:36;2.17;;;1.80;;
51981;SDS011;37998;53.416;6.730;2022-08-05T04:03:04;1.83;;;1.65;;
51981;SDS011;37998;53.416;6.730;2022-08-05T04:05:32;3.97;;;1.63;;
51981;SDS011;37998;53.416;6.730;2022-08-05T04:08:02;3.17;;;1.60;;
51981;SDS011;37998;53.416;6.730;2022-08-05T04:10:31;2.20;;;1.40;;
51981;SDS011;37998;53.416;6.730;2022-08-05T04:12:58;1.95;;;1.40;;
51981;SDS011;37998;53.416;6.730;2022-08-05T04:15:25;3.47;;;1.73;;
51981;SDS011;37998;53.416;6.730;2022-08-05T04:17:52;3.63;;;1.88;;
51981;SDS011;37998;53.416;6.730;2022-08-05T04:20:19;4.03;;;1.77;;
51981;SDS011;37998;53.416;6.730;2022-08-05T04:22:47;3.72;;;2.10;;
51981;SDS011;37998;53.416;6.730;2022-08-05T04:25:13;5.75;;;2.53;;
51981;SDS011;37998;53.416;6.730;2022-08-05T04:27:39;7.30;;;2.20;;
51981;SDS011;37998;53.416;6.730;2022-08-05T04:30:06;5.57;;;2.38;;
51981;SDS011;37998;53.416;6.730;2022-08-05T04:32:32;6.10;;;2.30;;
51981;SDS011;37998;53.416;6.730;2022-08-05T04:34:58;4.22;;;2.10;;
51981;SDS011;37998;53.416;6.730;2022-08-05T04:37:24;4.82;;;2.13;;
51981;SDS011;37998;53.416;6.730;2022-08-05T04:39:49;7.63;;;2.20;;
51981;SDS011;37998;53.416;6.730;2022-08-05T04:42:15;4.78;;;2.13;;
51981;SDS011;37998;53.416;6.730;2022-08-05T04:44:41;7.05;;;2.13;;
51981;SDS011;37998;53.416;6.730;2022-08-05T04:47:06;3.90;;;1.83;;
51981;SDS011;37998;53.416;6.730;2022-08-05T04:49:32;4.53;;;2.25;;
51981;SDS011;37998;53.416;6.730;2022-08-05T04:51:58;5.13;;;1.70;;
51981;SDS011;37998;53.416;6.730;2022-08-05T04:54:24;3.00;;;1.60;;
51981;SDS011;37998;53.416;6.730;2022-08-05T04:56:52;2.65;;;1.40;;
51981;SDS011;37998;53.416;6.730;2022-08-05T04:59:18;4.60;;;2.05;;
51981;SDS011;37998;53.416;6.730;2022-08-05T05:01:46;3.20;;;2.13;;
51981;SDS011;37998;53.416;6.730;2022-08-05T05:04:12;5.35;;;2.40;;
51981;SDS011;37998;53.416;6.730;2022-08-05T05:06:41;4.90;;;2.60;;
51981;SDS011;37998;53.416;6.730;2022-08-05T05:09:07;4.72;;;2.65;;
51981;SDS011;37998;53.416;6.730;2022-08-05T05:11:34;3.33;;;2.30;;
51981;SDS011;37998;53.416;6.730;2022-08-05T05:13:59;6.70;;;2.25;;
51981;SDS011;37998;53.416;6.730;2022-08-05T05:16:27;3.67;;;2.20;;
51981;SDS011;37998;53.416;6.730;2022-08-05T05:18:53;5.22;;;2.38;;
51981;SDS011;37998;53.416;6.730;2022-08-05T05:21:18;4.70;;;2.25;;
51981;SDS011;37998;53.416;6.730;2022-08-05T05:23:44;3.30;;;2.10;;
51981;SDS011;37998;53.416;6.730;2022-08-05T05:26:10;4.70;;;2.20;;
51981;SDS011;37998;53.416;6.730;2022-08-05T05:28:35;5.65;;;2.20;;
51981;SDS011;37998;53.416;6.730;2022-08-05T05:31:01;4.88;;;2.35;;
51981;SDS011;37998;53.416;6.730;2022-08-05T05:33:27;2.95;;;2.30;;
51981;SDS011;37998;53.416;6.730;2022-08-05T05:35:52;5.20;;;2.47;;
51981;SDS011;37998;53.416;6.730;2022-08-05T05:38:18;3.50;;;2.30;;
51981;SDS011;37998;53.416;6.730;2022-08-05T05:40:43;7.22;;;2.80;;
51981;SDS011;37998;53.416;6.730;2022-08-05T05:43:12;3.60;;;2.40;;
51981;SDS011;37998;53.416;6.730;2022-08-05T05:45:37;5.90;;;2.08;;
51981;SDS011;37998;53.416;6.730;2022-08-05T05:48:03;6.18;;;2.33;;
51981;SDS011;37998;53.416;6.730;2022-08-05T05:50:33;7.68;;;2.20;;
51981;SDS011;37998;53.416;6.730;2022-08-05T05:52:59;5.15;;;1.90;;
51981;SDS011;37998;53.416;6.730;2022-08-05T05:55:25;3.17;;;2.30;;
51981;SDS011;37998;53.416;6.730;2022-08-05T05:57:51;6.07;;;2.10;;
51981;SDS011;37998;53.416;6.730;2022-08-05T06:00:18;4.18;;;1.50;;
51981;SDS011;37998;53.416;6.730;2022-08-05T06:02:45;6.57;;;1.90;;
51981;SDS011;37998;53.416;6.730;2022-08-05T06:05:12;4.20;;;1.90;;
51981;SDS011;37998;53.416;6.730;2022-08-05T06:07:39;3.55;;;1.85;;
51981;SDS011;37998;53.416;6.730;2022-08-05T06:10:06;4.95;;;2.10;;
51981;SDS011;37998;53.416;6.730;2022-08-05T06:12:33;5.28;;;2.38;;
51981;SDS011;37998;53.416;6.730;2022-08-05T06:15:00;3.70;;;2.10;;
51981;SDS011;37998;53.416;6.730;2022-08-05T06:17:28;3.63;;;1.90;;
51981;SDS011;37998;53.416;6.730;2022-08-05T06:19:53;5.95;;;1.98;;
51981;SDS011;37998;53.416;6.730;2022-08-05T06:22:23;4.25;;;1.77;;
51981;SDS011;37998;53.416;6.730;2022-08-05T06:24:50;4.18;;;1.63;;
51981;SDS011;37998;53.416;6.730;2022-08-05T06:27:16;8.35;;;2.20;;
51981;SDS011;37998;53.416;6.730;2022-08-05T06:29:42;2.30;;;1.27;;
51981;SDS011;37998;53.416;6.730;2022-08-05T06:32:08;4.57;;;1.33;;
51981;SDS011;37998;53.416;6.730;2022-08-05T06:34:34;3.53;;;2.00;;
51981;SDS011;37998;53.416;6.730;2022-08-05T06:37:00;3.67;;;1.60;;
51981;SDS011;37998;53.416;6.730;2022-08-05T06:39:26;3.58;;;1.38;;
51981;SDS011;37998;53.416;6.730;2022-08-05T06:41:52;5.40;;;1.40;;
51981;SDS011;37998;53.416;6.730;2022-08-05T06:44:17;3.60;;;1.42;;
51981;SDS011;37998;53.416;6.730;2022-08-05T06:46:44;3.10;;;1.27;;
51981;SDS011;37998;53.416;6.730;2022-08-05T06:49:09;3.10;;;1.38;;
51981;SDS011;37998;53.416;6.730;2022-08-05T06:51:35;4.30;;;1.52;;
51981;SDS011;37998;53.416;6.730;2022-08-05T06:54:01;3.00;;;1.17;;
51981;SDS011;37998;53.416;6.730;2022-08-05T06:56:28;3.38;;;1.10;;
51981;SDS011;37998;53.416;6.730;2022-08-05T06:58:55;2.00;;;1.20;;
51981;SDS011;37998;53.416;6.730;2022-08-05T07:01:20;2.95;;;1.13;;
51981;SDS011;37998;53.416;6.730;2022-08-05T07:03:46;1.85;;;1.00;;
51981;SDS011;37998;53.416;6.730;2022-08-05T07:06:12;3.33;;;1.13;;
51981;SDS011;37998;53.416;6.730;2022-08-05T07:08:37;2.90;;;1.27;;
51981;SDS011;37998;53.416;6.730;2022-08-05T07:11:03;4.68;;;1.30;;
51981;SDS011;37998;53.416;6.730;2022-08-05T07:13:32;6.97;;;1.40;;
51981;SDS011;37998;53.416;6.730;2022-08-05T07:16:16;3.22;;;1.27;;
51981;SDS011;37998;53.416;6.730;2022-08-05T07:19:01;2.47;;;1.10;;
51981;SDS011;37998;53.416;6.730;2022-08-05T07:21:26;3.47;;;1.27;;
51981;SDS011;37998;53.416;6.730;2022-08-05T07:23:52;6.35;;;1.30;;
51981;SDS011;37998;53.416;6.730;2022-08-05T07:26:17;3.47;;;1.13;;
51981;SDS011;37998;53.416;6.730;2022-08-05T07:28:43;1.88;;;1.30;;
51981;SDS011;37998;53.416;6.730;2022-08-05T07:31:09;4.07;;;1.25;;
51981;SDS011;37998;53.416;6.730;2022-08-05T07:33:34;6.13;;;1.63;;
51981;SDS011;37998;53.416;6.730;2022-08-05T07:36:00;4.00;;;1.40;;
51981;SDS011;37998;53.416;6.730;2022-08-05T07:38:26;3.70;;;1.48;;
51981;SDS011;37998;53.416;6.730;2022-08-05T07:40:52;1.95;;;1.00;;
51981;SDS011;37998;53.416;6.730;2022-08-05T07:43:17;7.05;;;1.42;;
51981;SDS011;37998;53.416;6.730;2022-08-05T07:45:46;4.43;;;1.33;;
51981;SDS011;37998;53.416;6.730;2022-08-05T07:48:12;2.65;;;1.27;;
51981;SDS011;37998;53.416;6.730;2022-08-05T07:50:37;4.18;;;1.20;;
51981;SDS011;37998;53.416;6.730;2022-08-05T07:53:03;5.28;;;1.42;;
51981;SDS011;37998;53.416;6.730;2022-08-05T07:55:29;3.13;;;1.27;;
51981;SDS011;37998;53.416;6.730;2022-08-05T07:57:55;4.07;;;1.33;;
51981;SDS011;37998;53.416;6.730;2022-08-05T08:00:24;3.08;;;1.13;;
51981;SDS011;37998;53.416;6.730;2022-08-05T08:02:49;3.90;;;1.23;;
51981;SDS011;37998;53.416;6.730;2022-08-05T08:05:15;3.55;;;1.48;;
51981;SDS011;37998;53.416;6.730;2022-08-05T08:07:41;3.25;;;1.00;;
51981;SDS011;37998;53.416;6.730;2022-08-05T08:10:07;2.00;;;1.10;;
51981;SDS011;37998;53.416;6.730;2022-08-05T08:12:32;4.65;;;0.95;;
51981;SDS011;37998;53.416;6.730;2022-08-05T08:14:58;6.30;;;1.48;;
51981;SDS011;37998;53.416;6.730;2022-08-05T08:17:24;2.85;;;1.10;;
51981;SDS011;37998;53.416;6.730;2022-08-05T08:19:49;2.90;;;1.10;;
51981;SDS011;37998;53.416;6.730;2022-08-05T08:22:15;4.65;;;1.30;;
51981;SDS011;37998;53.416;6.730;2022-08-05T08:24:41;4.05;;;1.35;;
51981;SDS011;37998;53.416;6.730;2022-08-05T08:27:07;3.38;;;1.15;;
51981;SDS011;37998;53.416;6.730;2022-08-05T08:29:32;5.43;;;1.70;;
51981;SDS011;37998;53.416;6.730;2022-08-05T08:31:58;3.95;;;1.35;;
51981;SDS011;37998;53.416;6.730;2022-08-05T08:34:24;5.55;;;1.70;;
51981;SDS011;37998;53.416;6.730;2022-08-05T08:36:50;4.53;;;1.35;;
51981;SDS011;37998;53.416;6.730;2022-08-05T08:39:16;4.60;;;1.50;;
51981;SDS011;37998;53.416;6.730;2022-08-05T08:41:43;2.38;;;1.30;;
51981;SDS011;37998;53.416;6.730;2022-08-05T08:44:12;6.03;;;1.65;;
51981;SDS011;37998;53.416;6.730;2022-08-05T08:46:46;2.22;;;1.23;;
51981;SDS011;37998;53.416;6.730;2022-08-05T08:49:14;4.00;;;1.40;;
51981;SDS011;37998;53.416;6.730;2022-08-05T08:51:40;2.65;;;1.23;;
51981;SDS011;37998;53.416;6.730;2022-08-05T08:54:10;3.03;;;1.10;;
51981;SDS011;37998;53.416;6.730;2022-08-05T08:56:37;4.65;;;1.30;;
51981;SDS011;37998;53.416;6.730;2022-08-05T08:59:03;1.73;;;1.10;;
51981;SDS011;37998;53.416;6.730;2022-08-05T09:01:29;5.05;;;1.20;;
51981;SDS011;37998;53.416;6.730;2022-08-05T09:03:56;2.33;;;1.10;;
51981;SDS011;37998;53.416;6.730;2022-08-05T09:06:27;4.05;;;1.40;;
51981;SDS011;37998;53.416;6.730;2022-08-05T09:08:54;2.50;;;1.10;;
51981;SDS011;37998;53.416;6.730;2022-08-05T09:11:20;2.30;;;1.10;;
51981;SDS011;37998;53.416;6.730;2022-08-05T09:13:46;3.17;;;1.23;;
51981;SDS011;37998;53.416;6.730;2022-08-05T09:16:12;3.15;;;1.15;;
51981;SDS011;37998;53.416;6.730;2022-08-05T09:18:38;4.88;;;1.10;;
51981;SDS011;37998;53.416;6.730;2022-08-05T09:21:04;3.08;;;1.10;;
51981;SDS011;37998;53.416;6.730;2022-08-05T09:23:30;3.70;;;1.20;;
51981;SDS011;37998;53.416;6.730;2022-08-05T09:26:06;2.75;;;1.10;;
51981;SDS011;37998;53.416;6.730;2022-08-05T09:28:35;4.05;;;1.02;;
51981;SDS011;37998;53.416;6.730;2022-08-05T09:33:45;1.65;;;1.10;;
51981;SDS011;37998;53.416;6.730;2022-08-05T09:41:57;2.35;;;1.05;;
51981;SDS011;37998;53.416;6.730;2022-08-05T09:44:41;2.90;;;0.93;;
51981;SDS011;37998;53.416;6.730;2022-08-05T09:47:12;2.28;;;0.90;;
51981;SDS011;37998;53.416;6.730;2022-08-05T09:49:51;4.05;;;0.75;;
51981;SDS011;37998;53.416;6.730;2022-08-05T09:52:19;2.75;;;0.85;;
51981;SDS011;37998;53.416;6.730;2022-08-05T09:55:33;2.17;;;0.90;;
51981;SDS011;37998;53.416;6.730;2022-08-05T09:57:44;1.08;;;0.73;;
51981;SDS011;37998;53.416;6.730;2022-08-05T10:02:40;2.15;;;0.90;;
51981;SDS011;37998;53.416;6.730;2022-08-05T10:05:09;2.17;;;0.73;;
51981;SDS011;37998;53.416;6.730;2022-08-05T10:07:42;2.05;;;0.77;;
51981;SDS011;37998;53.416;6.730;2022-08-05T10:10:23;1.35;;;1.05;;
51981;SDS011;37998;53.416;6.730;2022-08-05T10:12:56;1.88;;;0.80;;
51981;SDS011;37998;53.416;6.730;2022-08-05T10:15:24;3.47;;;0.60;;
51981;SDS011;37998;53.416;6.730;2022-08-05T10:18:14;0.68;;;0.60;;
51981;SDS011;37998;53.416;6.730;2022-08-05T10:23:25;2.92;;;0.63;;
51981;SDS011;37998;53.416;6.730;2022-08-05T10:25:55;2.88;;;0.75;;
51981;SDS011;37998;53.416;6.730;2022-08-05T10:28:22;1.83;;;0.60;;
51981;SDS011;37998;53.416;6.730;2022-08-05T10:30:52;0.88;;;0.70;;
51981;SDS011;37998;53.416;6.730;2022-08-05T10:33:18;1.95;;;0.70;;
51981;SDS011;37998;53.416;6.730;2022-08-05T10:35:47;1.25;;;0.82;;
51981;SDS011;37998;53.416;6.730;2022-08-05T10:38:20;3.75;;;0.90;;
51981;SDS011;37998;53.416;6.730;2022-08-05T10:46:20;2.33;;;0.57;;
51981;SDS011;37998;53.416;6.730;2022-08-05T10:48:47;2.47;;;0.50;;
51981;SDS011;37998;53.416;6.730;2022-08-05T10:51:15;0.63;;;0.63;;
51981;SDS011;37998;53.416;6.730;2022-08-05T10:56:15;1.73;;;0.70;;
51981;SDS011;37998;53.416;6.730;2022-08-05T10:59:16;1.98;;;0.85;;
51981;SDS011;37998;53.416;6.730;2022-08-05T11:01:36;1.25;;;0.60;;
51981;SDS011;37998;53.416;6.730;2022-08-05T11:09:25;1.20;;;0.63;;
51981;SDS011;37998;53.416;6.730;2022-08-05T11:12:00;0.77;;;0.40;;
51981;SDS011;37998;53.416;6.730;2022-08-05T11:14:31;1.35;;;0.90;;
51981;SDS011;37998;53.416;6.730;2022-08-05T11:19:51;2.60;;;0.60;;
51981;SDS011;37998;53.416;6.730;2022-08-05T11:33:27;4.53;;;0.63;;
51981;SDS011;37998;53.416;6.730;2022-08-05T11:35:56;3.33;;;1.13;;
51981;SDS011;37998;53.416;6.730;2022-08-05T11:43:29;0.95;;;0.68;;
51981;SDS011;37998;53.416;6.730;2022-08-05T11:45:55;3.30;;;0.70;;
51981;SDS011;37998;53.416;6.730;2022-08-05T11:48:21;1.58;;;0.68;;
51981;SDS011;37998;53.416;6.730;2022-08-05T11:50:50;4.97;;;0.90;;
51981;SDS011;37998;53.416;6.730;2022-08-05T11:53:17;3.00;;;0.73;;
51981;SDS011;37998;53.416;6.730;2022-08-05T11:55:59;4.50;;;0.88;;
51981;SDS011;37998;53.416;6.730;2022-08-05T12:01:02;4.82;;;0.73;;
51981;SDS011;37998;53.416;6.730;2022-08-05T12:03:47;2.47;;;0.60;;
51981;SDS011;37998;53.416;6.730;2022-08-05T12:06:24;1.60;;;0.65;;
51981;SDS011;37998;53.416;6.730;2022-08-05T12:08:58;5.55;;;0.60;;
51981;SDS011;37998;53.416;6.730;2022-08-05T12:11:24;1.90;;;0.65;;
51981;SDS011;37998;53.416;6.730;2022-08-05T12:14:02;2.85;;;0.68;;
51981;SDS011;37998;53.416;6.730;2022-08-05T12:16:39;6.20;;;1.40;;
51981;SDS011;37998;53.416;6.730;2022-08-05T12:19:07;1.58;;;0.82;;
51981;SDS011;37998;53.416;6.730;2022-08-05T12:24:12;1.63;;;0.60;;
51981;SDS011;37998;53.416;6.730;2022-08-05T12:26:42;3.28;;;0.70;;
51981;SDS011;37998;53.416;6.730;2022-08-05T12:29:16;6.20;;;0.90;;
51981;SDS011;37998;53.416;6.730;2022-08-05T12:31:47;1.08;;;0.40;;
51981;SDS011;37998;53.416;6.730;2022-08-05T12:34:15;2.50;;;0.98;;
51981;SDS011;37998;53.416;6.730;2022-08-05T12:36:43;4.32;;;0.60;;
51981;SDS011;37998;53.416;6.730;2022-08-05T12:39:10;3.00;;;0.70;;
51981;SDS011;37998;53.416;6.730;2022-08-05T12:41:37;3.03;;;0.70;;
51981;SDS011;37998;53.416;6.730;2022-08-05T12:44:05;1.48;;;0.75;;
51981;SDS011;37998;53.416;6.730;2022-08-05T12:46:33;2.67;;;1.00;;
51981;SDS011;37998;53.416;6.730;2022-08-05T12:49:01;2.30;;;0.73;;
51981;SDS011;37998;53.416;6.730;2022-08-05T12:51:30;3.25;;;0.90;;
51981;SDS011;37998;53.416;6.730;2022-08-05T12:54:06;1.75;;;0.40;;
51981;SDS011;37998;53.416;6.730;2022-08-05T12:56:40;3.20;;;0.88;;
51981;SDS011;37998;53.416;6.730;2022-08-05T12:59:17;3.38;;;0.82;;
51981;SDS011;37998;53.416;6.730;2022-08-05T13:01:57;2.80;;;0.70;;
51981;SDS011;37998;53.416;6.730;2022-08-05T13:04:30;2.92;;;0.85;;
51981;SDS011;37998;53.416;6.730;2022-08-05T13:07:03;1.20;;;0.70;;
51981;SDS011;37998;53.416;6.730;2022-08-05T13:09:31;1.52;;;0.60;;
51981;SDS011;37998;53.416;6.730;2022-08-05T13:12:02;3.00;;;0.88;;
51981;SDS011;37998;53.416;6.730;2022-08-05T13:14:39;2.80;;;1.00;;
51981;SDS011;37998;53.416;6.730;2022-08-05T13:17:17;1.17;;;0.60;;
51981;SDS011;37998;53.416;6.730;2022-08-05T13:22:33;1.73;;;0.98;;
51981;SDS011;37998;53.416;6.730;2022-08-05T13:25:00;1.05;;;0.70;;
51981;SDS011;37998;53.416;6.730;2022-08-05T13:27:32;6.95;;;0.95;;
51981;SDS011;37998;53.416;6.730;2022-08-05T13:29:59;4.78;;;0.70;;
51981;SDS011;37998;53.416;6.730;2022-08-05T13:32:25;2.08;;;0.70;;
51981;SDS011;37998;53.416;6.730;2022-08-05T13:34:52;2.13;;;0.70;;
51981;SDS011;37998;53.416;6.730;2022-08-05T13:37:18;6.63;;;1.00;;
51981;SDS011;37998;53.416;6.730;2022-08-05T13:39:45;2.33;;;0.65;;
51981;SDS011;37998;53.416;6.730;2022-08-05T13:42:11;2.30;;;0.57;;
51981;SDS011;37998;53.416;6.730;2022-08-05T13:44:37;2.58;;;0.68;;
51981;SDS011;37998;53.416;6.730;2022-08-05T13:47:02;1.00;;;0.55;;
51981;SDS011;37998;53.416;6.730;2022-08-05T13:49:28;2.58;;;0.75;;
51981;SDS011;37998;53.416;6.730;2022-08-05T13:51:54;4.07;;;0.82;;
51981;SDS011;37998;53.416;6.730;2022-08-05T13:54:20;3.20;;;0.70;;
51981;SDS011;37998;53.416;6.730;2022-08-05T13:56:45;4.15;;;0.70;;
51981;SDS011;37998;53.416;6.730;2022-08-05T13:59:11;2.95;;;0.50;;
51981;SDS011;37998;53.416;6.730;2022-08-05T14:01:37;4.07;;;0.68;;
51981;SDS011;37998;53.416;6.730;2022-08-05T14:04:03;6.68;;;1.45;;
51981;SDS011;37998;53.416;6.730;2022-08-05T14:06:47;11.70;;;2.33;;
51981;SDS011;37998;53.416;6.730;2022-08-05T14:09:13;11.18;;;1.95;;
51981;SDS011;37998;53.416;6.730;2022-08-05T14:11:38;9.52;;;1.40;;
51981;SDS011;37998;53.416;6.730;2022-08-05T14:14:06;9.85;;;1.58;;
51981;SDS011;37998;53.416;6.730;2022-08-05T14:16:32;2.35;;;0.95;;
51981;SDS011;37998;53.416;6.730;2022-08-05T14:18:58;7.53;;;1.60;;
51981;SDS011;37998;53.416;6.730;2022-08-05T14:21:24;4.78;;;1.20;;
51981;SDS011;37998;53.416;6.730;2022-08-05T14:23:49;11.23;;;1.48;;
51981;SDS011;37998;53.416;6.730;2022-08-05T14:26:15;3.22;;;1.00;;
51981;SDS011;37998;53.416;6.730;2022-08-05T14:28:41;5.95;;;1.15;;
51981;SDS011;37998;53.416;6.730;2022-08-05T14:31:06;7.82;;;1.30;;
51981;SDS011;37998;53.416;6.730;2022-08-05T14:33:32;5.30;;;1.35;;
51981;SDS011;37998;53.416;6.730;2022-08-05T14:36:01;5.15;;;1.10;;
51981;SDS011;37998;53.416;6.730;2022-08-05T14:38:27;5.18;;;1.10;;
51981;SDS011;37998;53.416;6.730;2022-08-05T14:40:53;3.47;;;1.10;;
51981;SDS011;37998;53.416;6.730;2022-08-05T14:43:19;4.03;;;1.15;;
51981;SDS011;37998;53.416;6.730;2022-08-05T14:45:45;2.05;;;0.80;;
51981;SDS011;37998;53.416;6.730;2022-08-05T14:48:11;2.67;;;1.00;;
51981;SDS011;37998;53.416;6.730;2022-08-05T14:50:36;3.10;;;0.85;;
51981;SDS011;37998;53.416;6.730;2022-08-05T14:53:05;4.75;;;1.10;;
51981;SDS011;37998;53.416;6.730;2022-08-05T14:55:31;10.30;;;1.25;;
51981;SDS011;37998;53.416;6.730;2022-08-05T14:57:56;3.88;;;1.08;;
51981;SDS011;37998;53.416;6.730;2022-08-05T15:00:25;6.00;;;0.88;;
51981;SDS011;37998;53.416;6.730;2022-08-05T15:02:50;1.92;;;0.77;;
51981;SDS011;37998;53.416;6.730;2022-08-05T15:05:16;2.20;;;0.90;;
51981;SDS011;37998;53.416;6.730;2022-08-05T15:07:44;5.60;;;1.75;;
51981;SDS011;37998;53.416;6.730;2022-08-05T15:10:10;3.75;;;0.82;;
51981;SDS011;37998;53.416;6.730;2022-08-05T15:12:36;2.30;;;1.05;;
51981;SDS011;37998;53.416;6.730;2022-08-05T15:15:02;3.53;;;0.90;;
51981;SDS011;37998;53.416;6.730;2022-08-05T15:17:28;3.78;;;0.95;;
51981;SDS011;37998;53.416;6.730;2022-08-05T15:19:53;9.30;;;1.00;;
51981;SDS011;37998;53.416;6.730;2022-08-05T15:22:19;1.58;;;0.90;;
51981;SDS011;37998;53.416;6.730;2022-08-05T15:24:44;1.48;;;0.70;;
51981;SDS011;37998;53.416;6.730;2022-08-05T15:27:10;4.22;;;1.02;;
51981;SDS011;37998;53.416;6.730;2022-08-05T15:29:35;2.80;;;1.33;;
51981;SDS011;37998;53.416;6.730;2022-08-05T15:32:01;5.25;;;0.85;;
51981;SDS011;37998;53.416;6.730;2022-08-05T15:34:27;2.83;;;0.70;;
51981;SDS011;37998;53.416;6.730;2022-08-05T15:36:53;2.75;;;0.80;;
51981;SDS011;37998;53.416;6.730;2022-08-05T15:39:18;2.25;;;0.95;;
51981;SDS011;37998;53.416;6.730;2022-08-05T15:41:44;1.50;;;0.80;;
51981;SDS011;37998;53.416;6.730;2022-08-05T15:44:10;2.70;;;1.05;;
51981;SDS011;37998;53.416;6.730;2022-08-05T15:46:35;2.13;;;1.13;;
51981;SDS011;37998;53.416;6.730;2022-08-05T15:49:01;1.67;;;0.77;;
51981;SDS011;37998;53.416;6.730;2022-08-05T15:51:29;4.72;;;0.88;;
51981;SDS011;37998;53.416;6.730;2022-08-05T15:53:55;4.05;;;0.70;;
51981;SDS011;37998;53.416;6.730;2022-08-05T15:56:21;1.73;;;0.77;;
51981;SDS011;37998;53.416;6.730;2022-08-05T15:58:47;2.00;;;0.85;;
51981;SDS011;37998;53.416;6.730;2022-08-05T16:01:13;2.25;;;0.60;;
51981;SDS011;37998;53.416;6.730;2022-08-05T16:03:39;3.83;;;0.88;;